sensor_id;sensor_type;location;lat;lon;timestamp;P1;durP1;ratioP1;P2;durP2;ratioP2
8964;SDS011;4517;49.020;12.066;2024-02-16T00:00:12;37.80;;;33.73;;
8964;SDS011;4517;49.020;12.066;2024-02-16T00:02:39;37.90;;;34.30;;
8964;SDS011;4517;49.020;12.066;2024-02-16T00:05:06;37.27;;;33.70;;
8964;SDS011;4517;49.020;12.066;2024-02-16T00:07:33;38.67;;;34.57;;
8964;SDS011;4517;49.020;12.066;2024-02-16T00:09:59;37.93;;;34.40;;
8964;SDS011;4517;49.020;12.066;2024-02-16T00:12:25;38.87;;;34.60;;
8964;SDS011;4517;49.020;12.066;2024-02-16T00:14:51;38.10;;;33.20;;
8964;SDS011;4517;49.020;12.066;2024-02-16T00:17:17;37.90;;;34.20;;
8964;SDS011;4517;49.020;12.066;2024-02-16T00:19:43;35.47;;;31.90;;
8964;SDS011;4517;49.020;12.066;2024-02-16T00:22:09;38.10;;;34.13;;
8964;SDS011;4517;49.020;12.066;2024-02-16T00:24:35;37.87;;;34.17;;
8964;SDS011;4517;49.020;12.066;2024-02-16T00:27:01;36.87;;;33.20;;
8964;SDS011;4517;49.020;12.066;2024-02-16T00:29:30;35.70;;;32.47;;
8964;SDS011;4517;49.020;12.066;2024-02-16T00:31:56;36.90;;;33.40;;
8964;SDS011;4517;49.020;12.066;2024-02-16T00:34:24;36.17;;;32.77;;
8964;SDS011;4517;49.020;12.066;2024-02-16T00:36:50;38.90;;;35.10;;
8964;SDS011;4517;49.020;12.066;2024-02-16T00:39:17;34.50;;;31.30;;
8964;SDS011;4517;49.020;12.066;2024-02-16T00:41:42;36.17;;;32.77;;
8964;SDS011;4517;49.020;12.066;2024-02-16T00:44:09;39.93;;;33.40;;
8964;SDS011;4517;49.020;12.066;2024-02-16T00:46:35;38.37;;;34.80;;
8964;SDS011;4517;49.020;12.066;2024-02-16T00:49:02;36.20;;;33.20;;
8964;SDS011;4517;49.020;12.066;2024-02-16T00:51:28;37.20;;;33.30;;
8964;SDS011;4517;49.020;12.066;2024-02-16T00:53:55;36.90;;;31.97;;
8964;SDS011;4517;49.020;12.066;2024-02-16T00:56:21;35.60;;;32.33;;
8964;SDS011;4517;49.020;12.066;2024-02-16T00:58:47;39.00;;;35.20;;
8964;SDS011;4517;49.020;12.066;2024-02-16T01:01:14;35.30;;;31.90;;
8964;SDS011;4517;49.020;12.066;2024-02-16T01:03:40;38.70;;;34.60;;
8964;SDS011;4517;49.020;12.066;2024-02-16T01:06:07;36.03;;;32.43;;
8964;SDS011;4517;49.020;12.066;2024-02-16T01:08:36;37.33;;;33.90;;
8964;SDS011;4517;49.020;12.066;2024-02-16T01:11:02;36.60;;;33.17;;
8964;SDS011;4517;49.020;12.066;2024-02-16T01:13:28;36.33;;;32.93;;
8964;SDS011;4517;49.020;12.066;2024-02-16T01:15:54;37.43;;;33.53;;
8964;SDS011;4517;49.020;12.066;2024-02-16T01:18:20;36.30;;;33.00;;
8964;SDS011;4517;49.020;12.066;2024-02-16T01:20:46;36.23;;;32.70;;
8964;SDS011;4517;49.020;12.066;2024-02-16T01:23:12;37.47;;;33.47;;
8964;SDS011;4517;49.020;12.066;2024-02-16T01:25:38;36.57;;;32.70;;
8964;SDS011;4517;49.020;12.066;2024-02-16T01:28:04;36.00;;;32.47;;
8964;SDS011;4517;49.020;12.066;2024-02-16T01:30:30;35.30;;;31.63;;
8964;SDS011;4517;49.020;12.066;2024-02-16T01:32:56;37.00;;;33.50;;
8964;SDS011;4517;49.020;12.066;2024-02-16T01:35:22;34.87;;;31.57;;
8964;SDS011;4517;49.020;12.066;2024-02-16T01:37:49;33.33;;;30.43;;
8964;SDS011;4517;49.020;12.066;2024-02-16T01:40:15;33.97;;;31.17;;
8964;SDS011;4517;49.020;12.066;2024-02-16T01:42:42;35.97;;;32.70;;
8964;SDS011;4517;49.020;12.066;2024-02-16T01:45:08;34.50;;;31.40;;
8964;SDS011;4517;49.020;12.066;2024-02-16T01:47:35;36.47;;;32.53;;
8964;SDS011;4517;49.020;12.066;2024-02-16T01:50:02;37.20;;;33.40;;
8964;SDS011;4517;49.020;12.066;2024-02-16T01:52:29;34.67;;;31.43;;
8964;SDS011;4517;49.020;12.066;2024-02-16T01:54:56;33.93;;;30.83;;
8964;SDS011;4517;49.020;12.066;2024-02-16T01:57:22;36.13;;;32.23;;
8964;SDS011;4517;49.020;12.066;2024-02-16T01:59:49;35.33;;;32.10;;
8964;SDS011;4517;49.020;12.066;2024-02-16T02:02:15;36.13;;;32.53;;
8964;SDS011;4517;49.020;12.066;2024-02-16T02:04:41;35.90;;;32.40;;
8964;SDS011;4517;49.020;12.066;2024-02-16T02:07:13;36.50;;;32.90;;
8964;SDS011;4517;49.020;12.066;2024-02-16T02:09:40;35.20;;;31.80;;
8964;SDS011;4517;49.020;12.066;2024-02-16T02:12:06;34.30;;;31.10;;
8964;SDS011;4517;49.020;12.066;2024-02-16T02:14:33;35.93;;;32.50;;
8964;SDS011;4517;49.020;12.066;2024-02-16T02:16:59;34.67;;;31.33;;
8964;SDS011;4517;49.020;12.066;2024-02-16T02:19:25;34.43;;;31.40;;
8964;SDS011;4517;49.020;12.066;2024-02-16T02:21:51;34.80;;;31.57;;
8964;SDS011;4517;49.020;12.066;2024-02-16T02:24:17;32.90;;;29.50;;
8964;SDS011;4517;49.020;12.066;2024-02-16T02:26:44;33.90;;;30.77;;
8964;SDS011;4517;49.020;12.066;2024-02-16T02:29:10;33.83;;;30.70;;
8964;SDS011;4517;49.020;12.066;2024-02-16T02:31:36;35.00;;;31.40;;
8964;SDS011;4517;49.020;12.066;2024-02-16T02:34:02;32.97;;;29.77;;
8964;SDS011;4517;49.020;12.066;2024-02-16T02:36:30;34.83;;;31.40;;
8964;SDS011;4517;49.020;12.066;2024-02-16T02:38:56;35.07;;;31.60;;
8964;SDS011;4517;49.020;12.066;2024-02-16T02:41:22;33.83;;;30.73;;
8964;SDS011;4517;49.020;12.066;2024-02-16T02:43:48;34.27;;;31.00;;
8964;SDS011;4517;49.020;12.066;2024-02-16T02:46:18;34.87;;;31.27;;
8964;SDS011;4517;49.020;12.066;2024-02-16T02:48:44;34.50;;;30.97;;
8964;SDS011;4517;49.020;12.066;2024-02-16T02:51:10;35.07;;;31.73;;
8964;SDS011;4517;49.020;12.066;2024-02-16T02:53:36;33.87;;;30.80;;
8964;SDS011;4517;49.020;12.066;2024-02-16T02:56:02;34.07;;;30.93;;
8964;SDS011;4517;49.020;12.066;2024-02-16T02:58:28;35.30;;;31.87;;
8964;SDS011;4517;49.020;12.066;2024-02-16T03:00:55;34.30;;;31.10;;
8964;SDS011;4517;49.020;12.066;2024-02-16T03:03:21;32.87;;;29.60;;
8964;SDS011;4517;49.020;12.066;2024-02-16T03:05:47;33.43;;;30.23;;
8964;SDS011;4517;49.020;12.066;2024-02-16T03:08:13;35.90;;;32.13;;
8964;SDS011;4517;49.020;12.066;2024-02-16T03:10:40;33.30;;;30.20;;
8964;SDS011;4517;49.020;12.066;2024-02-16T03:13:06;33.53;;;30.33;;
8964;SDS011;4517;49.020;12.066;2024-02-16T03:15:33;32.50;;;29.57;;
8964;SDS011;4517;49.020;12.066;2024-02-16T03:18:00;33.27;;;29.87;;
8964;SDS011;4517;49.020;12.066;2024-02-16T03:20:26;34.80;;;31.40;;
8964;SDS011;4517;49.020;12.066;2024-02-16T03:22:52;33.83;;;30.77;;
8964;SDS011;4517;49.020;12.066;2024-02-16T03:25:18;34.67;;;31.33;;
8964;SDS011;4517;49.020;12.066;2024-02-16T03:27:45;33.20;;;30.00;;
8964;SDS011;4517;49.020;12.066;2024-02-16T03:30:11;33.70;;;30.60;;
8964;SDS011;4517;49.020;12.066;2024-02-16T03:32:37;33.93;;;30.90;;
8964;SDS011;4517;49.020;12.066;2024-02-16T03:35:03;32.70;;;29.60;;
8964;SDS011;4517;49.020;12.066;2024-02-16T03:37:29;36.20;;;31.40;;
8964;SDS011;4517;49.020;12.066;2024-02-16T03:39:55;35.37;;;31.93;;
8964;SDS011;4517;49.020;12.066;2024-02-16T03:42:22;36.00;;;31.50;;
8964;SDS011;4517;49.020;12.066;2024-02-16T03:44:48;32.90;;;29.50;;
8964;SDS011;4517;49.020;12.066;2024-02-16T03:47:14;34.10;;;31.00;;
8964;SDS011;4517;49.020;12.066;2024-02-16T03:49:40;33.80;;;30.50;;
8964;SDS011;4517;49.020;12.066;2024-02-16T03:52:05;33.77;;;30.10;;
8964;SDS011;4517;49.020;12.066;2024-02-16T03:54:31;32.70;;;29.80;;
8964;SDS011;4517;49.020;12.066;2024-02-16T03:56:57;31.40;;;28.40;;
8964;SDS011;4517;49.020;12.066;2024-02-16T03:59:23;33.73;;;29.43;;
8964;SDS011;4517;49.020;12.066;2024-02-16T04:01:49;32.00;;;29.20;;
8964;SDS011;4517;49.020;12.066;2024-02-16T04:04:17;32.40;;;29.47;;
8964;SDS011;4517;49.020;12.066;2024-02-16T04:06:43;31.23;;;28.43;;
8964;SDS011;4517;49.020;12.066;2024-02-16T04:09:09;31.50;;;28.70;;
8964;SDS011;4517;49.020;12.066;2024-02-16T04:11:35;32.33;;;29.33;;
8964;SDS011;4517;49.020;12.066;2024-02-16T04:14:01;30.57;;;27.80;;
8964;SDS011;4517;49.020;12.066;2024-02-16T04:16:27;32.50;;;29.27;;
8964;SDS011;4517;49.020;12.066;2024-02-16T04:18:54;31.87;;;28.97;;
8964;SDS011;4517;49.020;12.066;2024-02-16T04:21:20;29.77;;;27.23;;
8964;SDS011;4517;49.020;12.066;2024-02-16T04:23:46;28.80;;;26.50;;
8964;SDS011;4517;49.020;12.066;2024-02-16T04:26:12;30.67;;;27.77;;
8964;SDS011;4517;49.020;12.066;2024-02-16T04:28:39;31.13;;;28.03;;
8964;SDS011;4517;49.020;12.066;2024-02-16T04:31:05;30.93;;;28.03;;
8964;SDS011;4517;49.020;12.066;2024-02-16T04:33:31;30.20;;;27.40;;
8964;SDS011;4517;49.020;12.066;2024-02-16T04:35:57;33.03;;;28.00;;
8964;SDS011;4517;49.020;12.066;2024-02-16T04:38:23;31.40;;;28.20;;
8964;SDS011;4517;49.020;12.066;2024-02-16T04:40:49;31.40;;;28.57;;
8964;SDS011;4517;49.020;12.066;2024-02-16T04:43:15;30.00;;;27.10;;
8964;SDS011;4517;49.020;12.066;2024-02-16T04:45:41;30.30;;;27.53;;
8964;SDS011;4517;49.020;12.066;2024-02-16T04:48:08;30.00;;;27.13;;
8964;SDS011;4517;49.020;12.066;2024-02-16T04:50:34;30.07;;;27.37;;
8964;SDS011;4517;49.020;12.066;2024-02-16T04:53:00;29.73;;;27.00;;
8964;SDS011;4517;49.020;12.066;2024-02-16T04:55:27;29.90;;;27.03;;
8964;SDS011;4517;49.020;12.066;2024-02-16T04:57:54;31.63;;;28.17;;
8964;SDS011;4517;49.020;12.066;2024-02-16T05:00:20;30.30;;;27.27;;
8964;SDS011;4517;49.020;12.066;2024-02-16T05:02:46;30.80;;;27.90;;
8964;SDS011;4517;49.020;12.066;2024-02-16T05:05:12;32.10;;;29.10;;
8964;SDS011;4517;49.020;12.066;2024-02-16T05:07:38;31.23;;;27.90;;
8964;SDS011;4517;49.020;12.066;2024-02-16T05:10:07;29.60;;;26.57;;
8964;SDS011;4517;49.020;12.066;2024-02-16T05:12:33;30.50;;;27.73;;
8964;SDS011;4517;49.020;12.066;2024-02-16T05:14:59;29.30;;;26.70;;
8964;SDS011;4517;49.020;12.066;2024-02-16T05:17:25;31.53;;;28.33;;
8964;SDS011;4517;49.020;12.066;2024-02-16T05:19:52;30.87;;;27.57;;
8964;SDS011;4517;49.020;12.066;2024-02-16T05:22:19;29.57;;;26.67;;
8964;SDS011;4517;49.020;12.066;2024-02-16T05:24:46;29.80;;;27.00;;
8964;SDS011;4517;49.020;12.066;2024-02-16T05:27:13;30.60;;;27.70;;
8964;SDS011;4517;49.020;12.066;2024-02-16T05:29:39;30.90;;;28.07;;
8964;SDS011;4517;49.020;12.066;2024-02-16T05:32:05;29.63;;;26.93;;
8964;SDS011;4517;49.020;12.066;2024-02-16T05:34:31;28.10;;;25.27;;
8964;SDS011;4517;49.020;12.066;2024-02-16T05:37:05;30.27;;;27.37;;
8964;SDS011;4517;49.020;12.066;2024-02-16T05:39:32;29.53;;;26.80;;
8964;SDS011;4517;49.020;12.066;2024-02-16T05:42:01;29.47;;;26.43;;
8964;SDS011;4517;49.020;12.066;2024-02-16T05:44:27;31.93;;;28.60;;
8964;SDS011;4517;49.020;12.066;2024-02-16T05:46:53;29.97;;;27.07;;
8964;SDS011;4517;49.020;12.066;2024-02-16T05:49:19;31.57;;;28.33;;
8964;SDS011;4517;49.020;12.066;2024-02-16T05:51:45;31.70;;;28.80;;
8964;SDS011;4517;49.020;12.066;2024-02-16T05:54:31;30.70;;;27.90;;
8964;SDS011;4517;49.020;12.066;2024-02-16T05:56:57;29.87;;;27.27;;
8964;SDS011;4517;49.020;12.066;2024-02-16T05:59:23;32.13;;;28.93;;
8964;SDS011;4517;49.020;12.066;2024-02-16T06:01:50;35.37;;;27.93;;
8964;SDS011;4517;49.020;12.066;2024-02-16T06:04:16;29.90;;;26.97;;
8964;SDS011;4517;49.020;12.066;2024-02-16T06:06:42;27.37;;;24.93;;
8964;SDS011;4517;49.020;12.066;2024-02-16T06:09:08;30.50;;;27.60;;
8964;SDS011;4517;49.020;12.066;2024-02-16T06:11:36;32.03;;;29.07;;
8964;SDS011;4517;49.020;12.066;2024-02-16T06:14:03;34.87;;;31.67;;
8964;SDS011;4517;49.020;12.066;2024-02-16T06:16:29;33.20;;;30.10;;
8964;SDS011;4517;49.020;12.066;2024-02-16T06:18:55;35.10;;;31.80;;
8964;SDS011;4517;49.020;12.066;2024-02-16T06:21:21;33.70;;;30.60;;
8964;SDS011;4517;49.020;12.066;2024-02-16T06:23:47;34.33;;;31.03;;
8964;SDS011;4517;49.020;12.066;2024-02-16T06:26:13;33.00;;;29.90;;
8964;SDS011;4517;49.020;12.066;2024-02-16T06:28:39;46.00;;;36.40;;
8964;SDS011;4517;49.020;12.066;2024-02-16T06:31:05;35.40;;;31.73;;
8964;SDS011;4517;49.020;12.066;2024-02-16T06:33:31;34.80;;;31.37;;
8964;SDS011;4517;49.020;12.066;2024-02-16T06:35:57;34.33;;;30.87;;
8964;SDS011;4517;49.020;12.066;2024-02-16T06:38:23;35.63;;;32.30;;
8964;SDS011;4517;49.020;12.066;2024-02-16T06:40:49;33.90;;;30.57;;
8964;SDS011;4517;49.020;12.066;2024-02-16T06:43:15;34.63;;;31.17;;
8964;SDS011;4517;49.020;12.066;2024-02-16T06:45:41;35.93;;;32.43;;
8964;SDS011;4517;49.020;12.066;2024-02-16T06:48:07;35.17;;;31.67;;
8964;SDS011;4517;49.020;12.066;2024-02-16T06:50:34;33.60;;;30.10;;
8964;SDS011;4517;49.020;12.066;2024-02-16T06:52:59;36.93;;;32.90;;
8964;SDS011;4517;49.020;12.066;2024-02-16T06:55:25;32.60;;;29.50;;
8964;SDS011;4517;49.020;12.066;2024-02-16T06:57:51;32.70;;;29.60;;
8964;SDS011;4517;49.020;12.066;2024-02-16T07:00:17;33.20;;;30.13;;
8964;SDS011;4517;49.020;12.066;2024-02-16T07:02:45;31.07;;;28.13;;
8964;SDS011;4517;49.020;12.066;2024-02-16T07:05:11;42.37;;;29.27;;
8964;SDS011;4517;49.020;12.066;2024-02-16T07:07:37;37.07;;;30.10;;
8964;SDS011;4517;49.020;12.066;2024-02-16T07:10:03;31.93;;;29.03;;
8964;SDS011;4517;49.020;12.066;2024-02-16T07:12:30;37.00;;;32.47;;
8964;SDS011;4517;49.020;12.066;2024-02-16T07:14:58;37.63;;;33.70;;
8964;SDS011;4517;49.020;12.066;2024-02-16T07:17:24;36.70;;;33.10;;
8964;SDS011;4517;49.020;12.066;2024-02-16T07:19:50;35.97;;;32.27;;
8964;SDS011;4517;49.020;12.066;2024-02-16T07:22:16;34.63;;;31.27;;
8964;SDS011;4517;49.020;12.066;2024-02-16T07:24:42;39.67;;;35.37;;
8964;SDS011;4517;49.020;12.066;2024-02-16T07:27:08;41.13;;;35.13;;
8964;SDS011;4517;49.020;12.066;2024-02-16T07:29:35;43.23;;;37.20;;
8964;SDS011;4517;49.020;12.066;2024-02-16T07:32:04;41.30;;;36.90;;
8964;SDS011;4517;49.020;12.066;2024-02-16T07:34:30;39.37;;;35.10;;
8964;SDS011;4517;49.020;12.066;2024-02-16T07:36:56;42.50;;;34.30;;
8964;SDS011;4517;49.020;12.066;2024-02-16T07:39:22;38.87;;;35.17;;
8964;SDS011;4517;49.020;12.066;2024-02-16T07:41:49;39.87;;;35.40;;
8964;SDS011;4517;49.020;12.066;2024-02-16T07:44:15;38.13;;;34.40;;
8964;SDS011;4517;49.020;12.066;2024-02-16T07:46:41;37.70;;;34.20;;
8964;SDS011;4517;49.020;12.066;2024-02-16T07:49:07;47.50;;;34.70;;
8964;SDS011;4517;49.020;12.066;2024-02-16T07:51:35;37.10;;;33.37;;
8964;SDS011;4517;49.020;12.066;2024-02-16T07:54:02;37.83;;;34.00;;
8964;SDS011;4517;49.020;12.066;2024-02-16T07:56:28;41.23;;;37.13;;
8964;SDS011;4517;49.020;12.066;2024-02-16T07:58:55;57.00;;;51.87;;
8964;SDS011;4517;49.020;12.066;2024-02-16T08:01:21;37.47;;;33.83;;
8964;SDS011;4517;49.020;12.066;2024-02-16T08:03:47;37.57;;;33.40;;
8964;SDS011;4517;49.020;12.066;2024-02-16T08:06:13;36.10;;;32.50;;
8964;SDS011;4517;49.020;12.066;2024-02-16T08:08:41;35.60;;;31.90;;
8964;SDS011;4517;49.020;12.066;2024-02-16T08:11:07;33.37;;;30.10;;
8964;SDS011;4517;49.020;12.066;2024-02-16T08:13:33;34.97;;;31.33;;
8964;SDS011;4517;49.020;12.066;2024-02-16T08:15:59;33.40;;;30.20;;
8964;SDS011;4517;49.020;12.066;2024-02-16T08:18:25;33.70;;;30.50;;
8964;SDS011;4517;49.020;12.066;2024-02-16T08:20:51;31.13;;;28.10;;
8964;SDS011;4517;49.020;12.066;2024-02-16T08:23:17;31.93;;;28.70;;
8964;SDS011;4517;49.020;12.066;2024-02-16T08:25:43;31.03;;;28.00;;
8964;SDS011;4517;49.020;12.066;2024-02-16T08:28:09;31.37;;;28.50;;
8964;SDS011;4517;49.020;12.066;2024-02-16T08:30:35;31.53;;;28.47;;
8964;SDS011;4517;49.020;12.066;2024-02-16T08:33:01;31.80;;;27.87;;
8964;SDS011;4517;49.020;12.066;2024-02-16T08:35:26;29.93;;;26.83;;
8964;SDS011;4517;49.020;12.066;2024-02-16T08:37:53;30.90;;;28.07;;
8964;SDS011;4517;49.020;12.066;2024-02-16T08:40:19;33.70;;;27.40;;
8964;SDS011;4517;49.020;12.066;2024-02-16T08:42:45;30.20;;;27.33;;
8964;SDS011;4517;49.020;12.066;2024-02-16T08:45:12;29.90;;;26.77;;
8964;SDS011;4517;49.020;12.066;2024-02-16T08:47:38;31.20;;;27.90;;
8964;SDS011;4517;49.020;12.066;2024-02-16T08:50:05;28.50;;;25.60;;
8964;SDS011;4517;49.020;12.066;2024-02-16T08:52:32;28.50;;;25.77;;
8964;SDS011;4517;49.020;12.066;2024-02-16T08:54:58;29.77;;;26.27;;
8964;SDS011;4517;49.020;12.066;2024-02-16T08:57:23;28.40;;;25.40;;
8964;SDS011;4517;49.020;12.066;2024-02-16T08:59:49;28.73;;;25.73;;
8964;SDS011;4517;49.020;12.066;2024-02-16T09:02:15;28.97;;;25.97;;
8964;SDS011;4517;49.020;12.066;2024-02-16T09:04:41;28.23;;;25.60;;
8964;SDS011;4517;49.020;12.066;2024-02-16T09:07:07;30.43;;;27.40;;
8964;SDS011;4517;49.020;12.066;2024-02-16T09:09:33;28.10;;;25.30;;
8964;SDS011;4517;49.020;12.066;2024-02-16T09:11:59;28.43;;;25.80;;
8964;SDS011;4517;49.020;12.066;2024-02-16T09:14:25;27.47;;;24.87;;
8964;SDS011;4517;49.020;12.066;2024-02-16T09:16:51;32.53;;;25.60;;
8964;SDS011;4517;49.020;12.066;2024-02-16T09:19:17;27.50;;;25.00;;
8964;SDS011;4517;49.020;12.066;2024-02-16T09:21:44;27.50;;;24.73;;
8964;SDS011;4517;49.020;12.066;2024-02-16T09:24:10;28.20;;;25.30;;
8964;SDS011;4517;49.020;12.066;2024-02-16T09:26:42;29.80;;;26.70;;
8964;SDS011;4517;49.020;12.066;2024-02-16T09:29:08;28.33;;;25.30;;
8964;SDS011;4517;49.020;12.066;2024-02-16T09:31:34;28.90;;;26.20;;
8964;SDS011;4517;49.020;12.066;2024-02-16T09:34:00;27.80;;;25.30;;
8964;SDS011;4517;49.020;12.066;2024-02-16T09:36:27;29.63;;;26.73;;
8964;SDS011;4517;49.020;12.066;2024-02-16T09:38:53;27.93;;;25.20;;
8964;SDS011;4517;49.020;12.066;2024-02-16T09:41:19;33.03;;;30.23;;
8964;SDS011;4517;49.020;12.066;2024-02-16T09:43:45;28.63;;;25.23;;
8964;SDS011;4517;49.020;12.066;2024-02-16T09:46:11;30.80;;;28.00;;
8964;SDS011;4517;49.020;12.066;2024-02-16T09:48:37;27.13;;;24.43;;
8964;SDS011;4517;49.020;12.066;2024-02-16T09:51:06;27.37;;;24.27;;
8964;SDS011;4517;49.020;12.066;2024-02-16T09:53:32;30.13;;;27.23;;
8964;SDS011;4517;49.020;12.066;2024-02-16T09:55:58;30.43;;;24.83;;
8964;SDS011;4517;49.020;12.066;2024-02-16T09:58:24;27.03;;;24.23;;
8964;SDS011;4517;49.020;12.066;2024-02-16T10:00:53;23.80;;;21.40;;
8964;SDS011;4517;49.020;12.066;2024-02-16T10:03:23;25.37;;;22.67;;
8964;SDS011;4517;49.020;12.066;2024-02-16T10:05:50;30.20;;;23.40;;
8964;SDS011;4517;49.020;12.066;2024-02-16T10:08:17;27.80;;;22.70;;
8964;SDS011;4517;49.020;12.066;2024-02-16T10:10:43;25.63;;;23.07;;
8964;SDS011;4517;49.020;12.066;2024-02-16T10:13:09;27.17;;;24.30;;
8964;SDS011;4517;49.020;12.066;2024-02-16T10:15:36;24.43;;;22.13;;
8964;SDS011;4517;49.020;12.066;2024-02-16T10:18:03;25.80;;;23.17;;
8964;SDS011;4517;49.020;12.066;2024-02-16T10:20:30;24.37;;;22.03;;
8964;SDS011;4517;49.020;12.066;2024-02-16T10:23:06;24.90;;;22.40;;
8964;SDS011;4517;49.020;12.066;2024-02-16T10:25:33;24.77;;;22.33;;
8964;SDS011;4517;49.020;12.066;2024-02-16T10:27:59;25.50;;;23.27;;
8964;SDS011;4517;49.020;12.066;2024-02-16T10:30:28;23.83;;;21.83;;
8964;SDS011;4517;49.020;12.066;2024-02-16T10:32:55;24.60;;;22.27;;
8964;SDS011;4517;49.020;12.066;2024-02-16T10:35:22;24.70;;;22.23;;
8964;SDS011;4517;49.020;12.066;2024-02-16T10:37:51;24.80;;;22.40;;
8964;SDS011;4517;49.020;12.066;2024-02-16T10:40:19;25.43;;;23.00;;
8964;SDS011;4517;49.020;12.066;2024-02-16T10:42:45;24.40;;;22.17;;
8964;SDS011;4517;49.020;12.066;2024-02-16T10:45:11;24.43;;;22.43;;
8964;SDS011;4517;49.020;12.066;2024-02-16T10:47:41;24.03;;;21.90;;
8964;SDS011;4517;49.020;12.066;2024-02-16T10:50:07;23.83;;;21.50;;
8964;SDS011;4517;49.020;12.066;2024-02-16T10:52:34;23.63;;;21.53;;
8964;SDS011;4517;49.020;12.066;2024-02-16T10:55:01;24.17;;;21.67;;
8964;SDS011;4517;49.020;12.066;2024-02-16T10:57:28;24.10;;;21.80;;
8964;SDS011;4517;49.020;12.066;2024-02-16T10:59:54;27.13;;;22.37;;
8964;SDS011;4517;49.020;12.066;2024-02-16T11:02:21;23.10;;;21.10;;
8964;SDS011;4517;49.020;12.066;2024-02-16T11:04:49;23.37;;;21.37;;
8964;SDS011;4517;49.020;12.066;2024-02-16T11:07:18;22.83;;;20.83;;
8964;SDS011;4517;49.020;12.066;2024-02-16T11:09:44;22.37;;;20.57;;
8964;SDS011;4517;49.020;12.066;2024-02-16T11:12:14;24.00;;;21.53;;
8964;SDS011;4517;49.020;12.066;2024-02-16T11:14:44;22.77;;;20.93;;
8964;SDS011;4517;49.020;12.066;2024-02-16T11:17:11;22.40;;;20.50;;
8964;SDS011;4517;49.020;12.066;2024-02-16T11:19:39;22.00;;;20.27;;
8964;SDS011;4517;49.020;12.066;2024-02-16T11:22:05;23.00;;;20.70;;
8964;SDS011;4517;49.020;12.066;2024-02-16T11:24:33;22.10;;;20.13;;
8964;SDS011;4517;49.020;12.066;2024-02-16T11:27:04;22.67;;;20.67;;
8964;SDS011;4517;49.020;12.066;2024-02-16T11:29:34;21.80;;;19.80;;
8964;SDS011;4517;49.020;12.066;2024-02-16T11:32:03;22.77;;;20.53;;
8964;SDS011;4517;49.020;12.066;2024-02-16T11:34:29;22.77;;;20.57;;
8964;SDS011;4517;49.020;12.066;2024-02-16T11:36:56;23.70;;;21.43;;
8964;SDS011;4517;49.020;12.066;2024-02-16T11:39:22;26.80;;;20.27;;
8964;SDS011;4517;49.020;12.066;2024-02-16T11:41:58;23.20;;;21.07;;
8964;SDS011;4517;49.020;12.066;2024-02-16T11:44:26;22.93;;;21.03;;
8964;SDS011;4517;49.020;12.066;2024-02-16T11:46:55;25.30;;;21.80;;
8964;SDS011;4517;49.020;12.066;2024-02-16T11:49:21;23.80;;;21.50;;
8964;SDS011;4517;49.020;12.066;2024-02-16T11:51:47;23.73;;;21.40;;
8964;SDS011;4517;49.020;12.066;2024-02-16T11:54:13;23.47;;;21.40;;
8964;SDS011;4517;49.020;12.066;2024-02-16T11:56:42;27.97;;;21.63;;
8964;SDS011;4517;49.020;12.066;2024-02-16T11:59:10;23.10;;;21.20;;
8964;SDS011;4517;49.020;12.066;2024-02-16T12:01:39;22.03;;;20.10;;
8964;SDS011;4517;49.020;12.066;2024-02-16T12:04:19;22.20;;;20.10;;
8964;SDS011;4517;49.020;12.066;2024-02-16T12:06:45;22.53;;;20.57;;
8964;SDS011;4517;49.020;12.066;2024-02-16T12:09:14;22.80;;;20.90;;
8964;SDS011;4517;49.020;12.066;2024-02-16T12:11:41;24.30;;;21.90;;
8964;SDS011;4517;49.020;12.066;2024-02-16T12:14:07;23.33;;;21.07;;
8964;SDS011;4517;49.020;12.066;2024-02-16T12:16:33;23.13;;;21.13;;
8964;SDS011;4517;49.020;12.066;2024-02-16T12:19:03;24.27;;;21.87;;
8964;SDS011;4517;49.020;12.066;2024-02-16T12:21:30;23.80;;;21.67;;
8964;SDS011;4517;49.020;12.066;2024-02-16T12:23:56;24.47;;;22.20;;
8964;SDS011;4517;49.020;12.066;2024-02-16T12:26:22;23.63;;;21.73;;
8964;SDS011;4517;49.020;12.066;2024-02-16T12:28:48;22.97;;;21.23;;
8964;SDS011;4517;49.020;12.066;2024-02-16T12:31:20;23.07;;;20.60;;
8964;SDS011;4517;49.020;12.066;2024-02-16T12:33:47;23.20;;;21.10;;
8964;SDS011;4517;49.020;12.066;2024-02-16T12:36:13;23.10;;;21.07;;
8964;SDS011;4517;49.020;12.066;2024-02-16T12:38:39;22.00;;;19.97;;
8964;SDS011;4517;49.020;12.066;2024-02-16T12:41:05;22.80;;;20.70;;
8964;SDS011;4517;49.020;12.066;2024-02-16T12:43:32;22.87;;;20.87;;
8964;SDS011;4517;49.020;12.066;2024-02-16T12:45:58;22.90;;;20.90;;
8964;SDS011;4517;49.020;12.066;2024-02-16T12:48:27;23.03;;;20.97;;
8964;SDS011;4517;49.020;12.066;2024-02-16T12:50:53;23.13;;;21.13;;
8964;SDS011;4517;49.020;12.066;2024-02-16T12:53:19;23.13;;;21.13;;
8964;SDS011;4517;49.020;12.066;2024-02-16T12:55:46;22.87;;;21.07;;
8964;SDS011;4517;49.020;12.066;2024-02-16T12:58:12;22.50;;;20.60;;
8964;SDS011;4517;49.020;12.066;2024-02-16T13:00:38;22.87;;;20.83;;
8964;SDS011;4517;49.020;12.066;2024-02-16T13:03:04;28.47;;;26.03;;
8964;SDS011;4517;49.020;12.066;2024-02-16T13:05:30;23.70;;;21.67;;
8964;SDS011;4517;49.020;12.066;2024-02-16T13:07:57;23.93;;;21.30;;
8964;SDS011;4517;49.020;12.066;2024-02-16T13:10:23;24.20;;;22.10;;
8964;SDS011;4517;49.020;12.066;2024-02-16T13:12:49;22.67;;;20.77;;
8964;SDS011;4517;49.020;12.066;2024-02-16T13:15:15;23.13;;;21.30;;
8964;SDS011;4517;49.020;12.066;2024-02-16T13:17:41;23.73;;;21.30;;
8964;SDS011;4517;49.020;12.066;2024-02-16T13:20:07;23.53;;;21.53;;
8964;SDS011;4517;49.020;12.066;2024-02-16T13:22:37;22.47;;;20.50;;
8964;SDS011;4517;49.020;12.066;2024-02-16T13:25:03;25.00;;;22.40;;
8964;SDS011;4517;49.020;12.066;2024-02-16T13:27:29;24.13;;;21.93;;
8964;SDS011;4517;49.020;12.066;2024-02-16T13:29:55;22.63;;;20.83;;
8964;SDS011;4517;49.020;12.066;2024-02-16T13:32:21;23.23;;;21.17;;
8964;SDS011;4517;49.020;12.066;2024-02-16T13:34:47;21.90;;;20.10;;
8964;SDS011;4517;49.020;12.066;2024-02-16T13:37:13;32.53;;;30.00;;
8964;SDS011;4517;49.020;12.066;2024-02-16T13:39:39;23.83;;;21.37;;
8964;SDS011;4517;49.020;12.066;2024-02-16T13:42:05;22.20;;;20.20;;
8964;SDS011;4517;49.020;12.066;2024-02-16T13:44:31;24.10;;;21.70;;
8964;SDS011;4517;49.020;12.066;2024-02-16T13:46:57;24.00;;;21.73;;
8964;SDS011;4517;49.020;12.066;2024-02-16T13:49:23;24.63;;;22.50;;
8964;SDS011;4517;49.020;12.066;2024-02-16T13:51:49;23.57;;;21.27;;
8964;SDS011;4517;49.020;12.066;2024-02-16T13:54:15;25.20;;;22.67;;
8964;SDS011;4517;49.020;12.066;2024-02-16T13:56:42;23.03;;;20.90;;
8964;SDS011;4517;49.020;12.066;2024-02-16T13:59:08;23.20;;;21.20;;
8964;SDS011;4517;49.020;12.066;2024-02-16T14:01:34;22.47;;;20.40;;
8964;SDS011;4517;49.020;12.066;2024-02-16T14:04:01;23.30;;;21.40;;
8964;SDS011;4517;49.020;12.066;2024-02-16T14:06:28;23.30;;;21.20;;
8964;SDS011;4517;49.020;12.066;2024-02-16T14:08:54;23.67;;;21.30;;
8964;SDS011;4517;49.020;12.066;2024-02-16T14:11:21;23.30;;;21.20;;
8964;SDS011;4517;49.020;12.066;2024-02-16T14:13:47;22.10;;;20.13;;
8964;SDS011;4517;49.020;12.066;2024-02-16T14:16:13;23.80;;;21.67;;
8964;SDS011;4517;49.020;12.066;2024-02-16T14:18:39;24.00;;;21.80;;
8964;SDS011;4517;49.020;12.066;2024-02-16T14:21:05;23.27;;;21.17;;
8964;SDS011;4517;49.020;12.066;2024-02-16T14:23:32;23.50;;;21.20;;
8964;SDS011;4517;49.020;12.066;2024-02-16T14:25:58;22.27;;;20.33;;
8964;SDS011;4517;49.020;12.066;2024-02-16T14:28:24;24.03;;;21.47;;